createdAt,value
2023-05-25T00:01:02.652Z,3.92
2023-05-25T00:04:10.476Z,4.20
2023-05-25T00:07:15.790Z,4.00
2023-05-25T00:10:21.259Z,4.03
2023-05-25T00:13:26.685Z,3.90
2023-05-25T00:16:37.733Z,4.70
2023-05-25T00:19:44.136Z,3.92
2023-05-25T00:22:49.209Z,3.97
2023-05-25T00:25:54.370Z,4.22
2023-05-25T00:29:00.554Z,4.00
2023-05-25T00:32:07.932Z,4.20
2023-05-25T00:35:13.877Z,3.75
2023-05-25T00:38:20.047Z,4.07
2023-05-25T00:41:26.447Z,3.78
2023-05-25T00:44:32.236Z,3.42
2023-05-25T00:47:38.929Z,3.58
2023-05-25T00:50:45.820Z,3.20
2023-05-25T00:53:51.258Z,3.28
2023-05-25T00:57:05.357Z,3.05
2023-05-25T01:00:13.850Z,3.15
2023-05-25T01:03:22.437Z,2.97
2023-05-25T01:06:28.991Z,3.53
2023-05-25T01:09:36.065Z,3.10
2023-05-25T01:12:41.825Z,2.80
2023-05-25T01:15:47.587Z,3.28
2023-05-25T01:18:54.440Z,3.42
2023-05-25T01:22:05.872Z,3.00
2023-05-25T01:25:14.877Z,2.95
2023-05-25T01:28:22.677Z,3.00
2023-05-25T01:31:28.026Z,2.53
2023-05-25T01:34:33.509Z,3.08
2023-05-25T01:37:40.934Z,2.80
2023-05-25T01:40:46.055Z,2.55
2023-05-25T01:43:51.832Z,2.67
2023-05-25T01:47:01.448Z,2.83
2023-05-25T01:50:13.294Z,2.60
2023-05-25T01:53:22.040Z,2.58
2023-05-25T01:56:28.807Z,3.15
2023-05-25T01:59:34.031Z,2.60
2023-05-25T02:02:43.661Z,3.10
2023-05-25T02:05:49.397Z,2.65
2023-05-25T02:08:55.929Z,3.05
2023-05-25T02:12:03.190Z,3.30
2023-05-25T02:15:09.682Z,3.05
2023-05-25T02:18:17.883Z,2.92
2023-05-25T02:21:23.013Z,2.80
2023-05-25T02:24:31.663Z,2.70
2023-05-25T02:27:38.971Z,2.85
2023-05-25T02:30:45.489Z,2.70
2023-05-25T02:33:50.751Z,3.45
2023-05-25T02:36:57.440Z,2.78
2023-05-25T02:40:12.105Z,2.60
2023-05-25T02:43:19.118Z,2.90
2023-05-25T02:46:24.540Z,2.58
2023-05-25T02:49:30.051Z,2.60
2023-05-25T02:52:35.479Z,2.65
2023-05-25T02:55:43.641Z,2.75
2023-05-25T02:58:54.577Z,2.10
2023-05-25T03:02:06.962Z,2.67
2023-05-25T03:05:14.512Z,2.80
2023-05-25T03:08:19.605Z,2.17
2023-05-25T03:11:27.209Z,2.28
2023-05-25T03:14:35.217Z,2.22
2023-05-25T03:17:43.324Z,2.53
2023-05-25T03:20:49.140Z,2.50
2023-05-25T03:23:54.187Z,2.63
2023-05-25T03:27:00.844Z,2.05
2023-05-25T03:30:07.388Z,2.65
2023-05-25T03:33:14.546Z,2.28
2023-05-25T03:36:27.523Z,2.30
2023-05-25T03:39:33.026Z,2.55
2023-05-25T03:42:39.779Z,2.90
2023-05-25T03:45:45.659Z,2.35
2023-05-25T03:48:51.129Z,2.40
2023-05-25T03:51:56.501Z,2.30
2023-05-25T03:55:04.724Z,2.70
2023-05-25T03:58:11.239Z,2.50
2023-05-25T04:01:16.773Z,2.00
2023-05-25T04:04:22.152Z,2.28
2023-05-25T04:07:30.157Z,2.33
2023-05-25T04:10:36.817Z,2.03
2023-05-25T04:13:43.619Z,2.00
2023-05-25T04:16:48.929Z,2.25
2023-05-25T04:19:54.810Z,2.33
2023-05-25T04:23:00.048Z,2.35
2023-05-25T04:26:06.153Z,2.33
2023-05-25T04:29:13.716Z,2.10
2023-05-25T04:32:30.015Z,2.28
2023-05-25T04:35:58.727Z,1.92
2023-05-25T04:39:04.033Z,2.35
2023-05-25T04:42:12.928Z,2.25
2023-05-25T04:45:21.578Z,2.20
2023-05-25T04:48:28.615Z,2.42
2023-05-25T04:51:34.003Z,2.35
2023-05-25T04:54:39.191Z,2.17
2023-05-25T04:57:47.191Z,2.22
2023-05-25T05:00:53.751Z,2.90
2023-05-25T05:03:58.972Z,2.67
2023-05-25T05:07:05.213Z,2.47
2023-05-25T05:10:13.949Z,2.00
2023-05-25T05:13:24.331Z,2.70
2023-05-25T05:16:34.363Z,2.50
2023-05-25T05:19:39.827Z,2.42
2023-05-25T05:22:47.778Z,2.40
2023-05-25T05:25:52.925Z,2.60
2023-05-25T05:28:58.851Z,2.38
2023-05-25T05:32:06.028Z,2.55
2023-05-25T05:35:12.541Z,2.55
2023-05-25T05:38:23.253Z,2.92
2023-05-25T05:41:28.684Z,2.50
2023-05-25T05:44:37.080Z,2.58
2023-05-25T05:47:43.698Z,2.58
2023-05-25T05:50:49.224Z,2.35
2023-05-25T05:53:55.251Z,2.50
2023-05-25T05:57:01.606Z,2.10
2023-05-25T06:00:09.341Z,2.30
2023-05-25T06:03:23.304Z,2.42
2023-05-25T06:06:28.878Z,3.13
2023-05-25T06:09:35.678Z,2.25
2023-05-25T06:12:41.780Z,2.10
2023-05-25T06:15:47.462Z,2.90
2023-05-25T06:18:59.962Z,2.42
2023-05-25T06:22:05.200Z,2.72
2023-05-25T06:25:11.462Z,2.40
2023-05-25T06:28:17.452Z,2.50
2023-05-25T06:31:22.921Z,2.58
2023-05-25T06:34:29.884Z,2.45
2023-05-25T06:37:38.105Z,2.58
2023-05-25T06:40:44.691Z,2.50
2023-05-25T06:43:50.001Z,2.60
2023-05-25T06:47:18.079Z,2.63
2023-05-25T06:50:24.754Z,2.72
2023-05-25T06:53:29.904Z,2.70
2023-05-25T06:56:35.292Z,2.42
2023-05-25T06:59:40.531Z,2.05
2023-05-25T07:02:45.727Z,2.08
2023-05-25T07:05:52.269Z,2.08
2023-05-25T07:08:57.559Z,1.98
2023-05-25T07:12:02.798Z,2.38
2023-05-25T07:15:09.837Z,2.13
2023-05-25T07:18:16.719Z,1.92
2023-05-25T07:21:23.213Z,2.05
2023-05-25T07:24:28.332Z,2.10
2023-05-25T07:27:33.933Z,1.98
2023-05-25T07:30:39.221Z,2.13
2023-05-25T07:33:44.293Z,2.10
2023-05-25T07:36:50.913Z,1.92
2023-05-25T07:39:56.029Z,1.80
2023-05-25T07:43:01.290Z,1.77
2023-05-25T07:46:06.518Z,1.92
2023-05-25T07:49:16.248Z,1.60
2023-05-25T07:52:22.845Z,2.08
2023-05-25T07:55:28.311Z,2.40
2023-05-25T07:58:33.724Z,2.10
2023-05-25T08:01:39.193Z,1.80
2023-05-25T08:04:44.513Z,1.90
2023-05-25T08:07:51.091Z,1.60
2023-05-25T08:10:56.159Z,1.80
2023-05-25T08:14:01.298Z,2.40
2023-05-25T08:17:07.457Z,1.80
2023-05-25T08:20:15.387Z,1.70
2023-05-25T08:23:22.084Z,2.00
2023-05-25T08:26:41.339Z,1.55
2023-05-25T08:29:52.433Z,1.80
2023-05-25T08:32:58.362Z,2.00
2023-05-25T08:36:03.565Z,1.45
2023-05-25T08:39:10.358Z,1.80
2023-05-25T08:42:15.617Z,1.83
2023-05-25T08:45:34.135Z,1.90
2023-05-25T08:48:42.856Z,1.60
2023-05-25T08:51:51.498Z,1.90
2023-05-25T08:54:59.663Z,1.80
2023-05-25T08:58:11.526Z,1.92
2023-05-25T09:01:19.313Z,1.73
2023-05-25T09:04:24.670Z,1.70
2023-05-25T09:07:30.939Z,1.88
2023-05-25T09:10:38.028Z,1.98
2023-05-25T09:13:43.328Z,2.05
2023-05-25T09:16:49.126Z,1.88
2023-05-25T09:19:54.854Z,1.75
2023-05-25T09:23:00.586Z,1.65
2023-05-25T09:26:07.680Z,2.40
2023-05-25T09:29:16.593Z,2.60
2023-05-25T09:32:22.305Z,1.75
2023-05-25T09:35:27.664Z,1.80
2023-05-25T09:38:33.071Z,2.00
2023-05-25T09:41:40.555Z,1.90
2023-05-25T09:44:46.071Z,1.52
2023-05-25T09:47:51.416Z,1.83
2023-05-25T09:50:57.501Z,2.10
2023-05-25T09:54:02.927Z,1.58
2023-05-25T09:57:09.730Z,1.70
2023-05-25T10:00:16.191Z,1.92
2023-05-25T10:03:22.196Z,2.38
2023-05-25T10:06:27.959Z,1.70
2023-05-25T10:09:33.436Z,1.90
2023-05-25T10:12:41.445Z,1.67
2023-05-25T10:15:47.848Z,2.13
2023-05-25T10:18:59.991Z,1.48
2023-05-25T10:22:08.313Z,2.60
2023-05-25T10:25:18.066Z,2.05
2023-05-25T10:28:31.279Z,1.75
2023-05-25T10:31:37.915Z,1.92
2023-05-25T10:34:43.920Z,2.20
2023-05-25T10:37:49.173Z,1.70
2023-05-25T10:40:55.377Z,2.13
2023-05-25T10:44:02.415Z,1.88
2023-05-25T10:47:08.215Z,1.85
2023-05-25T10:50:24.469Z,1.50
2023-05-25T10:53:29.672Z,1.55
2023-05-25T10:56:34.913Z,1.48
2023-05-25T10:59:45.673Z,1.48
2023-05-25T11:02:55.025Z,1.50
2023-05-25T11:06:00.206Z,1.60
2023-05-25T11:09:06.659Z,1.60
2023-05-25T11:12:22.944Z,1.70
2023-05-25T11:15:32.283Z,1.45
2023-05-25T11:18:40.692Z,1.50
2023-05-25T11:21:46.707Z,1.73
2023-05-25T11:24:52.475Z,1.27
2023-05-25T11:28:04.878Z,1.30
2023-05-25T11:31:13.542Z,1.38
2023-05-25T11:34:18.733Z,1.60
2023-05-25T11:37:25.921Z,1.52
2023-05-25T11:40:33.342Z,1.60
2023-05-25T11:43:38.759Z,1.67
2023-05-25T11:46:48.704Z,1.73
2023-05-25T11:49:56.709Z,1.88
2023-05-25T11:53:06.100Z,1.58
2023-05-25T11:56:23.736Z,1.40
2023-05-25T11:59:39.537Z,1.50
2023-05-25T12:02:46.193Z,1.70
2023-05-25T12:05:51.388Z,1.95
2023-05-25T12:08:57.481Z,1.52
2023-05-25T12:12:04.370Z,1.65
2023-05-25T12:15:11.476Z,1.75
2023-05-25T12:18:18.196Z,1.70
2023-05-25T12:21:24.188Z,2.85
2023-05-25T12:24:29.323Z,1.80
2023-05-25T12:27:34.470Z,1.88
2023-05-25T12:30:39.713Z,1.80
2023-05-25T12:33:46.316Z,1.75
2023-05-25T12:36:52.898Z,2.00
2023-05-25T12:40:00.143Z,1.92
2023-05-25T12:43:05.757Z,2.10
2023-05-25T12:46:11.867Z,1.90
2023-05-25T12:49:32.319Z,2.33
2023-05-25T12:52:39.462Z,2.03
2023-05-25T12:55:44.601Z,1.90
2023-05-25T12:58:49.736Z,2.28
2023-05-25T13:01:54.938Z,1.50
2023-05-25T13:05:01.631Z,2.20
2023-05-25T13:08:07.423Z,1.90
2023-05-25T13:11:15.049Z,1.95
2023-05-25T13:14:20.855Z,2.25
2023-05-25T13:17:26.282Z,2.00
2023-05-25T13:20:33.040Z,2.15
2023-05-25T13:23:38.284Z,1.80
2023-05-25T13:26:43.986Z,1.70
2023-05-25T13:29:49.242Z,1.63
2023-05-25T13:32:54.486Z,1.85
2023-05-25T13:36:08.288Z,1.60
2023-05-25T13:39:15.039Z,2.30
2023-05-25T13:42:20.621Z,1.92
2023-05-25T13:45:25.995Z,2.03
2023-05-25T13:48:31.561Z,1.90
2023-05-25T13:51:38.371Z,1.98
2023-05-25T13:54:43.631Z,1.50
2023-05-25T13:57:48.892Z,1.33
2023-05-25T14:00:54.087Z,1.38
2023-05-25T14:04:00.465Z,1.40
2023-05-25T14:07:07.688Z,1.50
2023-05-25T14:10:14.737Z,2.28
2023-05-25T14:13:20.095Z,1.40
2023-05-25T14:16:25.409Z,2.28
2023-05-25T14:19:31.212Z,1.88
2023-05-25T14:22:37.672Z,1.30
2023-05-25T14:25:42.850Z,1.48
2023-05-25T14:28:48.098Z,1.23
2023-05-25T14:31:53.365Z,1.38
2023-05-25T14:34:58.538Z,1.25
2023-05-25T14:38:05.008Z,1.33
2023-05-25T14:41:10.977Z,1.10
2023-05-25T14:44:16.881Z,1.08
2023-05-25T14:47:22.187Z,1.17
2023-05-25T14:50:29.067Z,1.42
2023-05-25T14:53:36.969Z,1.20
2023-05-25T14:56:42.167Z,1.20
2023-05-25T14:59:47.324Z,1.13
2023-05-25T15:02:52.596Z,1.35
2023-05-25T15:05:57.794Z,1.10
2023-05-25T15:09:04.392Z,1.20
2023-05-25T15:12:09.559Z,1.17
2023-05-25T15:15:15.648Z,1.30
2023-05-25T15:18:21.408Z,1.20
2023-05-25T15:21:26.998Z,1.15
2023-05-25T15:24:33.557Z,1.05
2023-05-25T15:27:38.638Z,1.38
2023-05-25T15:30:43.682Z,1.17
2023-05-25T15:33:57.926Z,1.30
2023-05-25T15:37:03.929Z,1.70
2023-05-25T15:40:12.172Z,1.20
2023-05-25T15:43:17.332Z,1.90
2023-05-25T15:46:22.671Z,1.10
2023-05-25T15:49:28.827Z,1.20
2023-05-25T15:52:34.065Z,1.63
2023-05-25T15:55:40.574Z,1.10
2023-05-25T15:58:48.998Z,1.20
2023-05-25T16:01:54.285Z,1.33
2023-05-25T16:04:59.573Z,1.20
2023-05-25T16:08:04.705Z,1.10
2023-05-25T16:11:11.337Z,1.30
2023-05-25T16:14:16.519Z,1.05
2023-05-25T16:17:22.038Z,1.30
2023-05-25T16:20:27.330Z,1.30
2023-05-25T16:23:32.811Z,1.35
2023-05-25T16:26:39.426Z,1.35
2023-05-25T16:29:44.610Z,1.23
2023-05-25T16:32:49.744Z,1.52
2023-05-25T16:35:55.207Z,1.23
2023-05-25T16:39:00.298Z,1.23
2023-05-25T16:42:07.709Z,3.70
2023-05-25T16:45:14.649Z,1.90
2023-05-25T16:48:23.085Z,1.40
2023-05-25T16:51:28.430Z,1.80
2023-05-25T16:54:33.517Z,1.50
2023-05-25T16:57:40.022Z,1.00
2023-05-25T17:00:45.501Z,1.30
2023-05-25T17:03:50.908Z,1.15
2023-05-25T17:06:56.641Z,1.58
2023-05-25T17:10:01.768Z,1.33
2023-05-25T17:13:08.537Z,1.33
2023-05-25T17:16:14.445Z,1.60
2023-05-25T17:19:19.789Z,2.03
2023-05-25T17:22:25.082Z,1.20
2023-05-25T17:25:30.322Z,1.27
2023-05-25T17:28:36.877Z,1.60
2023-05-25T17:31:42.571Z,1.50
2023-05-25T17:34:47.804Z,1.30
2023-05-25T17:37:53.616Z,1.48
2023-05-25T17:40:58.801Z,1.60
2023-05-25T17:44:05.288Z,1.70
2023-05-25T17:47:11.374Z,1.77
2023-05-25T17:50:17.119Z,1.63
2023-05-25T17:53:22.266Z,1.42
2023-05-25T17:56:27.759Z,1.42
2023-05-25T17:59:34.313Z,1.65
2023-05-25T18:02:39.676Z,1.63
2023-05-25T18:05:45.205Z,1.27
2023-05-25T18:08:50.607Z,1.45
2023-05-25T18:11:56.279Z,1.40
2023-05-25T18:15:02.844Z,1.40
2023-05-25T18:18:08.614Z,1.20
2023-05-25T18:21:14.072Z,1.35
2023-05-25T18:24:19.448Z,1.25
2023-05-25T18:27:24.737Z,1.17
2023-05-25T18:30:31.326Z,1.70
2023-05-25T18:33:36.420Z,1.63
2023-05-25T18:36:41.886Z,1.23
2023-05-25T18:39:47.072Z,1.38
2023-05-25T18:42:52.145Z,1.40
2023-05-25T18:45:58.682Z,1.33
2023-05-25T18:49:04.301Z,2.00
2023-05-25T18:52:10.900Z,1.63
2023-05-25T18:55:16.207Z,1.52
2023-05-25T18:58:21.366Z,1.40
2023-05-25T19:01:28.146Z,1.88
2023-05-25T19:04:33.354Z,1.65
2023-05-25T19:07:50.665Z,1.50
2023-05-25T19:10:56.103Z,1.35
2023-05-25T19:14:01.318Z,1.38
2023-05-25T19:17:08.614Z,1.63
2023-05-25T19:54:15.670Z,1.88
2023-05-25T19:57:21.736Z,1.77
2023-05-25T20:00:27.416Z,1.70
2023-05-25T20:03:34.228Z,1.75
2023-05-25T20:06:39.438Z,1.40
2023-05-25T20:09:45.082Z,1.90
2023-05-25T20:12:50.299Z,1.52
2023-05-25T20:15:55.783Z,1.80
2023-05-25T20:19:02.935Z,1.55
2023-05-25T20:22:08.369Z,1.45
2023-05-25T20:25:13.877Z,2.20
2023-05-25T20:28:19.701Z,1.63
2023-05-25T20:31:25.299Z,1.83
2023-05-25T20:34:31.948Z,1.70
2023-05-25T20:37:37.215Z,1.67
2023-05-25T20:40:42.570Z,1.75
2023-05-25T20:43:47.697Z,2.00
2023-05-25T20:46:52.878Z,1.50
2023-05-25T20:49:59.701Z,1.90
2023-05-25T20:53:04.835Z,2.00
2023-05-25T20:56:10.321Z,1.90
2023-05-25T20:59:15.558Z,1.63
2023-05-25T21:02:20.808Z,1.70
2023-05-25T21:05:27.387Z,1.88
2023-05-25T21:08:33.124Z,1.50
2023-05-25T21:11:38.418Z,1.92
2023-05-25T21:14:43.544Z,1.55
2023-05-25T21:17:48.723Z,2.30
2023-05-25T21:20:56.077Z,2.33
2023-05-25T21:24:01.412Z,2.20
2023-05-25T21:27:07.539Z,1.77
2023-05-25T21:30:13.466Z,1.98
2023-05-25T21:33:19.176Z,2.65
2023-05-25T21:36:25.703Z,2.00
2023-05-25T21:39:30.820Z,1.73
2023-05-25T21:42:35.961Z,1.95
2023-05-25T21:45:41.621Z,1.90
2023-05-25T21:48:47.079Z,2.20
2023-05-25T21:51:53.586Z,1.80
2023-05-25T21:54:58.824Z,1.75
2023-05-25T21:58:04.036Z,1.90
2023-05-25T22:01:09.256Z,1.83
2023-05-25T22:04:14.370Z,2.30
2023-05-25T22:07:21.313Z,1.90
2023-05-25T22:10:26.483Z,1.63
2023-05-25T22:13:31.557Z,1.95
2023-05-25T22:16:36.695Z,2.65
2023-05-25T22:19:43.185Z,2.05
2023-05-25T22:22:52.288Z,1.92
2023-05-25T22:25:57.671Z,1.98
2023-05-25T22:29:03.276Z,1.90
2023-05-25T22:32:08.738Z,2.00
2023-05-25T22:35:14.949Z,2.20
2023-05-25T22:38:21.439Z,2.20
2023-05-25T22:41:29.396Z,2.25
2023-05-25T22:44:35.130Z,2.30
2023-05-25T22:47:40.353Z,2.38
2023-05-25T22:50:45.513Z,2.20
2023-05-25T22:53:52.003Z,2.28
2023-05-25T22:56:57.142Z,2.60
2023-05-25T23:00:02.441Z,2.50
2023-05-25T23:03:07.882Z,2.22
2023-05-25T23:06:13.428Z,2.80
2023-05-25T23:09:20.184Z,2.78
2023-05-25T23:12:25.463Z,2.30
2023-05-25T23:15:30.846Z,1.90
2023-05-25T23:18:35.898Z,2.83
2023-05-25T23:21:41.058Z,2.20
2023-05-25T23:24:47.615Z,2.40
2023-05-25T23:27:52.708Z,2.10
2023-05-25T23:30:58.057Z,2.30
2023-05-25T23:34:03.441Z,2.50
2023-05-25T23:37:08.685Z,2.35
2023-05-25T23:40:15.717Z,2.45
2023-05-25T23:43:20.888Z,2.55
2023-05-25T23:46:27.829Z,2.75
2023-05-25T23:49:33.103Z,2.58
2023-05-25T23:52:38.225Z,2.53
2023-05-25T23:55:44.866Z,2.35
2023-05-25T23:58:50.666Z,2.20
